KAEX/AEX METAR and TAF weather

Enter ICAO airport designator
Station Type Date Time Source
KAEX METAR 2020/01/18 21:53 UTC NOAA

KAEX 182153Z 33011G23KT 1 1/2SM +RA BR FEW014 BKN027 OVC060 18/17 A3010 RMK AO2 RAB50 PRESRR SLP1


Station Type Date Time Source
KAEX Decoded METAR 2020/01/18 21:53 UTC NOAA

ALEXANDRIA INTERNATIONAL AIRPORT, LA, United States (KAEX) 31-33N 092-56W 27M
Jan 18, 2020 - 04:53 PM EST / 2020.01.18 2153 UTC
Wind: from the NNW (330 degrees) at 13 MPH (11 KT) gusting to 26 MPH (23 KT):0
Visibility: 1 1/2 mile(s):0
Sky conditions: overcast
Weather: heavy rain; mist
Precipitation last hour: 0.07 inches
Temperature: 64.9 F (18.3 C)
Dew Point: 62.1 F (16.7 C)
Relative Humidity: 90%
Pressure (altimeter): 30.1 in. Hg (1019 hPa)
Pressure tendency: rising rapidly
ob: KAEX 182153Z 33011G23KT 1 1/2SM +RA BR FEW014 BKN027 OVC060 18/17 A3010 RMK AO2 RAB50 PRESRR SLP196 P0007 T01830167
cycle: 22

Station Type Date Time Source
KAEX TAF 2020/01/18 21:28 UTC NOAA

TAF
AMD KAEX 182126Z 1821/1918 29005KT P6SM VCSH SCT025 OVC060
FM182300 33006KT P6SM VCSH OVC060
FM190300 35012G18KT P6SM OVC060
FM191200 03016G21KT P6SM SCT060

Example: see airport list